Página principal
METAR-TAF:

METAR-TAF

Aeroportos :

Florianópolis, Santa Catarina, Brasil

Aeroporto Internacional de Florianópolis

latitude: 27-40S, longitude: 048-33W, altura: 5 m

Observação actual do tempo

O boletim foi feito há 49 minutos, às 11:00 UTC
Vento 3 kt de oes-sudoeste
Temperatura 22°C
Humidade 78%
Pressão 1018 hPa
Visibilidade 10 km ou mais
Nuvens dispersasa uma altura de 2000 ft
Nuvens dispersasa uma altura de 5000 ft

METAR: SBFL 241100Z 25003KT 9999 SCT020 SCT050 22/18 Q1018

Hora: 08:49 (11:49 UTC)

Previsão

O boletim foi feito há 2 horas e 9 minutos, às 09:40 UTC
Previsão válida de 24 às 12 UTC a 25 às 12 UTC
Vento 7 kt de sudeste
Visibilidade 10 km ou mais
Nuvens fragmentadasa uma altura de 3000 ft

TAF: SBFL 240940Z 2412/2512 14007KT 9999 BKN030 TX26/2416Z TN21/2508Z RMK PEB

Observações e previsões do tempo de mais de 4000 aeroportos (mensagens METAR e TAF).

As estações disponíveis são os pontos amarelos e vermelhos sobre o mapa.

Mova o rato sobre o mapa para ver o nome da estação.

Depois clique no ponto para visualizar as observações e previsões meteorológicas.

Para alterar o mapa : clique nos botões verdes com uma cruz preta para aumentar o zoom; no botão verde com uma pitada de zoom; ou nas setas verdes para mapas adjacentes.


METAR-TAF: